Time,TemperatureF,DewpointF,PressureIn,WindDirection,WindDirectionDegrees,WindSpeedMPH,WindSpeedGustMPH,Humidity,HourlyPrecipIn,Conditions,Clouds,dailyrainin,SoftwareType,DateUTC
2015-08-04 00:00:00,76.2,75.0,30.01,West,270,0.0,0.0,96,0.00,RA,,0.00,WeatherDisplay:10.37,2015-08-04 04:00:00,
2015-08-04 00:05:00,76.0,74.8,30.01,West,270,0.0,0.0,96,0.00,RA,,0.00,WeatherDisplay:10.37,2015-08-04 04:05:00,
2015-08-04 00:10:00,75.9,74.7,30.01,West,270,0.0,0.0,96,0.00,CLR,,0.00,WeatherDisplay:10.37,2015-08-04 04:10:00,
2015-08-04 00:15:00,76.1,74.2,30.01,West,270,0.0,0.0,94,0.00,CLR,,0.00,WeatherDisplay:10.37,2015-08-04 04:15:00,
2015-08-04 00:20:00,76.2,74.3,30.01,West,270,0.0,0.0,94,0.00,CLR,,0.00,WeatherDisplay:10.37,2015-08-04 04:20:00,
2015-08-04 00:25:00,76.4,73.9,30.01,West,270,0.0,0.0,92,0.00,CLR,,0.00,WeatherDisplay:10.37,2015-08-04 04:25:00,
2015-08-04 00:30:00,76.5,74.0,30.01,West,270,0.0,0.0,92,0.00,CLR,,0.00,WeatherDisplay:10.37,2015-08-04 04:30:00,
2015-08-04 00:35:00,76.7,73.9,30.01,West,270,0.0,0.0,91,0.00,CLR,,0.00,WeatherDisplay:10.37,2015-08-04 04:35:00,
2015-08-04 00:40:00,76.8,73.3,30.01,West,270,0.0,0.0,89,0.00,CLR,,0.00,WeatherDisplay:10.37,2015-08-04 04:40:00,
2015-08-04 00:45:00,76.9,73.4,30.01,West,270,0.0,0.0,89,0.00,CLR,,0.00,WeatherDisplay:10.37,2015-08-04 04:45:00,
2015-08-04 00:50:00,76.9,73.4,30.01,West,270,0.0,0.0,89,0.00,CLR,,0.00,WeatherDisplay:10.37,2015-08-04 04:50:00,
2015-08-04 00:55:00,76.9,73.7,30.01,West,270,0.0,0.0,90,0.00,CLR,,0.00,WeatherDisplay:10.37,2015-08-04 04:55:00,
2015-08-04 01:00:00,76.8,73.3,30.01,West,270,0.0,0.0,89,0.00,CLR,,0.00,WeatherDisplay:10.37,2015-08-04 05:00:00,
2015-08-04 01:05:00,76.7,73.2,30.01,West,270,0.0,0.0,89,0.00,CLR,,0.00,WeatherDisplay:10.37,2015-08-04 05:05:00,
2015-08-04 01:10:00,76.7,72.9,30.01,West,270,0.0,0.0,88,0.00,CLR,,0.00,WeatherDisplay:10.37,2015-08-04 05:10:00,
2015-08-04 01:15:00,76.8,73.3,30.01,West,270,0.0,0.0,89,0.00,CLR,,0.00,WeatherDisplay:10.37,2015-08-04 05:15:00,
2015-08-04 01:20:00,76.8,73.0,30.01,West,270,0.0,0.0,88,0.00,CLR,,0.00,WeatherDisplay:10.37,2015-08-04 05:20:00,
2015-08-04 01:25:00,76.7,73.5,30.01,West,270,0.0,0.0,90,0.00,CLR,,0.00,WeatherDisplay:10.37,2015-08-04 05:25:00,
2015-08-04 01:30:00,76.6,73.4,30.01,West,270,0.0,0.0,90,0.00,CLR,,0.00,WeatherDisplay:10.37,2015-08-04 05:30:00,
2015-08-04 01:35:00,76.4,72.9,30.01,West,270,0.0,0.0,89,0.00,CLR,,0.00,WeatherDisplay:10.37,2015-08-04 05:35:00,
2015-08-04 01:40:00,76.4,73.2,30.00,West,270,0.0,0.0,90,0.00,CLR,,0.00,WeatherDisplay:10.37,2015-08-04 05:40:00,
2015-08-04 01:45:00,76.4,73.6,30.00,West,270,0.0,0.0,91,0.00,CLR,,0.00,WeatherDisplay:10.37,2015-08-04 05:45:00,
2015-08-04 01:50:00,76.3,73.5,30.00,West,270,0.0,0.0,91,0.00,CLR,,0.00,WeatherDisplay:10.37,2015-08-04 05:50:00,
2015-08-04 01:55:00,76.2,73.7,30.00,West,270,0.0,0.0,92,0.00,CLR,,0.00,WeatherDisplay:10.37,2015-08-04 05:55:00,
2015-08-04 02:00:00,75.9,73.4,30.00,West,270,0.0,0.0,92,0.00,CLR,,0.00,WeatherDisplay:10.37,2015-08-04 06:00:00,
2015-08-04 02:05:00,75.9,73.4,30.00,West,270,0.0,0.0,92,0.00,CLR,,0.00,WeatherDisplay:10.37,2015-08-04 06:05:00,
2015-08-04 02:10:00,75.8,73.3,30.00,West,270,0.0,0.0,92,0.00,CLR,,0.00,WeatherDisplay:10.37,2015-08-04 06:10:00,
2015-08-04 02:15:00,75.8,73.3,30.00,West,270,0.0,0.0,92,0.00,CLR,,0.00,WeatherDisplay:10.37,2015-08-04 06:15:00,
2015-08-04 02:20:00,75.8,73.6,30.00,West,270,0.0,0.0,93,0.00,CLR,,0.00,WeatherDisplay:10.37,2015-08-04 06:20:00,
2015-08-04 02:25:00,75.7,73.8,30.00,West,270,0.0,0.0,94,0.00,CLR,,0.00,WeatherDisplay:10.37,2015-08-04 06:25:00,
2015-08-04 02:30:00,75.5,74.0,29.99,West,270,0.0,0.0,95,0.00,CLR,,0.00,WeatherDisplay:10.37,2015-08-04 06:30:00,
2015-08-04 02:35:00,75.3,73.8,29.99,West,270,0.0,0.0,95,0.00,CLR,,0.00,WeatherDisplay:10.37,2015-08-04 06:35:00,
2015-08-04 02:40:00,75.2,73.4,29.99,West,270,0.0,0.0,94,0.00,CLR,,0.00,WeatherDisplay:10.37,2015-08-04 06:40:00,
2015-08-04 02:45:00,75.3,72.8,29.99,West,270,0.0,0.0,92,0.00,CLR,,0.00,WeatherDisplay:10.37,2015-08-04 06:45:00,
2015-08-04 02:55:00,75.6,72.8,29.99,West,270,0.0,0.0,91,0.00,CLR,,0.00,WeatherDisplay:10.37,2015-08-04 06:55:00,
2015-08-04 03:00:00,75.7,72.9,29.99,West,270,0.0,0.0,91,0.00,CLR,,0.00,WeatherDisplay:10.37,2015-08-04 07:00:00,
2015-08-04 03:05:00,75.7,72.6,29.98,West,270,0.0,0.0,90,0.00,CLR,,0.00,WeatherDisplay:10.37,2015-08-04 07:05:00,
2015-08-04 03:10:00,75.5,72.4,29.98,West,270,0.0,0.0,90,0.00,CLR,,0.00,WeatherDisplay:10.37,2015-08-04 07:10:00,
2015-08-04 03:15:00,75.5,73.0,29.98,West,270,0.0,0.0,92,0.00,CLR,,0.00,WeatherDisplay:10.37,2015-08-04 07:15:00,
2015-08-04 03:20:00,75.5,73.0,29.98,West,270,0.0,0.0,92,0.00,CLR,,0.00,WeatherDisplay:10.37,2015-08-04 07:20:00,
2015-08-04 03:25:00,75.5,73.3,29.98,West,270,0.0,0.0,93,0.00,CLR,,0.00,WeatherDisplay:10.37,2015-08-04 07:25:00,
2015-08-04 03:30:00,75.5,73.3,29.98,West,270,0.0,0.0,93,0.00,CLR,,0.00,WeatherDisplay:10.37,2015-08-04 07:30:00,
2015-08-04 03:35:00,75.7,73.5,29.98,West,270,0.0,0.0,93,0.00,CLR,,0.00,WeatherDisplay:10.37,2015-08-04 07:35:00,
2015-08-04 03:40:00,75.7,73.5,29.98,West,270,0.0,0.0,93,0.00,CLR,,0.00,WeatherDisplay:10.37,2015-08-04 07:40:00,
2015-08-04 03:45:00,75.8,73.9,29.98,West,270,0.0,0.0,94,0.00,CLR,,0.00,WeatherDisplay:10.37,2015-08-04 07:45:00,
2015-08-04 03:50:00,75.9,74.4,29.98,West,270,0.0,0.0,95,0.00,CLR,,0.00,WeatherDisplay:10.37,2015-08-04 07:50:00,
2015-08-04 03:55:00,75.8,74.3,29.98,West,270,0.0,0.0,95,0.00,CLR,,0.00,WeatherDisplay:10.37,2015-08-04 07:55:00,
2015-08-04 04:00:00,75.8,74.3,29.98,West,270,0.0,0.0,95,0.00,CLR,,0.00,WeatherDisplay:10.37,2015-08-04 08:00:00,
2015-08-04 04:05:00,75.9,74.4,29.99,West,270,1.0,1.0,95,0.00,CLR,,0.00,WeatherDisplay:10.37,2015-08-04 08:05:00,
2015-08-04 04:10:00,76.1,74.6,29.98,West,270,1.2,0.0,95,0.00,CLR,,0.00,WeatherDisplay:10.37,2015-08-04 08:10:00,
2015-08-04 04:15:00,76.3,74.8,29.99,SE,135,1.0,1.0,95,0.00,CLR,,0.00,WeatherDisplay:10.37,2015-08-04 08:15:00,
2015-08-04 04:20:00,76.5,74.6,29.99,SE,135,2.3,2.3,94,0.00,CLR,,0.00,WeatherDisplay:10.37,2015-08-04 08:20:00,
2015-08-04 04:25:00,76.6,74.7,29.99,SE,135,2.3,2.3,94,0.00,CLR,,0.00,WeatherDisplay:10.37,2015-08-04 08:25:00,
2015-08-04 04:30:00,76.6,74.7,29.99,SE,135,2.3,2.3,94,0.00,CLR,,0.00,WeatherDisplay:10.37,2015-08-04 08:30:00,
2015-08-04 04:35:00,76.7,74.8,29.99,SE,135,2.3,2.3,94,0.00,CLR,,0.00,WeatherDisplay:10.37,2015-08-04 08:35:00,
2015-08-04 04:40:00,76.7,74.8,29.99,SE,135,2.3,2.3,94,0.00,CLR,,0.00,WeatherDisplay:10.37,2015-08-04 08:40:00,
2015-08-04 04:45:00,76.6,74.7,29.99,SE,135,0.0,0.0,94,0.00,CLR,,0.00,WeatherDisplay:10.37,2015-08-04 08:45:00,
2015-08-04 04:50:00,76.6,75.1,29.99,SE,135,2.3,2.3,95,0.00,CLR,,0.00,WeatherDisplay:10.37,2015-08-04 08:50:00,
2015-08-04 04:55:00,76.5,75.0,29.99,SE,135,2.3,2.3,95,0.00,CLR,,0.00,WeatherDisplay:10.37,2015-08-04 08:55:00,
2015-08-04 05:00:00,76.6,75.4,30.03,SE,135,2.3,2.3,96,0.00,CLR,,0.00,WeatherDisplay:10.37,2015-08-04 09:00:00,
2015-08-04 05:05:00,76.3,76.0,32.14,SE,135,2.3,2.3,99,0.00,CLR,,0.00,WeatherDisplay:10.37,2015-08-04 09:05:00,
2015-08-04 05:10:00,76.3,76.0,31.80,SE,135,0.0,0.0,99,0.00,CLR,,0.00,WeatherDisplay:10.37,2015-08-04 09:10:00,
2015-08-04 05:15:00,76.3,76.0,31.71,SE,135,1.2,1.2,99,0.00,CLR,,0.00,WeatherDisplay:10.37,2015-08-04 09:15:00,
2015-08-04 05:20:00,76.3,76.0,31.64,SE,135,2.0,2.0,99,0.00,CLR,,0.00,WeatherDisplay:10.37,2015-08-04 09:20:00,
2015-08-04 05:25:00,76.2,75.9,31.61,SE,135,2.3,2.3,99,0.00,CLR,,0.00,WeatherDisplay:10.37,2015-08-04 09:25:00,
2015-08-04 05:30:00,76.2,75.9,31.58,SE,135,1.2,1.2,99,0.00,CLR,,0.00,WeatherDisplay:10.37,2015-08-04 09:30:00,
2015-08-04 05:35:00,76.2,75.9,31.56,SE,135,2.3,2.3,99,0.00,CLR,,0.00,WeatherDisplay:10.37,2015-08-04 09:35:00,
2015-08-04 05:40:00,76.2,75.9,31.54,SE,135,2.3,2.3,99,0.00,CLR,,0.00,WeatherDisplay:10.37,2015-08-04 09:40:00,
2015-08-04 05:45:00,75.9,75.6,31.54,SE,135,0.0,0.0,99,0.00,CLR,,0.00,WeatherDisplay:10.37,2015-08-04 09:45:00,
2015-08-04 05:50:00,75.9,75.6,31.52,SE,135,0.0,0.0,99,0.00,CLR,,0.00,WeatherDisplay:10.37,2015-08-04 09:50:00,
2015-08-04 05:55:00,75.8,75.5,31.51,SE,135,0.0,0.0,99,0.00,CLR,,0.00,WeatherDisplay:10.37,2015-08-04 09:55:00,
2015-08-04 06:00:00,75.7,75.4,31.51,SE,135,0.0,0.0,99,0.00,CLR,,0.00,WeatherDisplay:10.37,2015-08-04 10:00:00,
2015-08-04 06:05:00,75.5,75.2,31.51,SE,135,0.0,0.0,99,0.00,CLR,,0.00,WeatherDisplay:10.37,2015-08-04 10:05:00,
2015-08-04 06:10:00,75.3,75.0,31.51,SE,135,0.0,0.0,99,0.00,CLR,,0.00,WeatherDisplay:10.37,2015-08-04 10:10:00,
2015-08-04 06:15:00,75.2,74.9,31.50,SE,135,0.0,0.0,99,0.00,CLR,,0.00,WeatherDisplay:10.37,2015-08-04 10:15:00,
2015-08-04 06:20:00,75.1,74.8,31.49,SE,135,0.0,0.0,99,0.00,CLR,,0.00,WeatherDisplay:10.37,2015-08-04 10:20:00,
2015-08-04 06:25:00,74.9,74.6,31.49,SE,135,1.0,0.0,99,0.00,CLR,,0.00,WeatherDisplay:10.37,2015-08-04 10:25:00,
2015-08-04 06:30:00,74.9,74.6,31.49,SE,135,1.2,0.0,99,0.00,CLR,,0.00,WeatherDisplay:10.37,2015-08-04 10:30:00,
2015-08-04 06:35:00,74.9,74.6,31.49,SE,135,0.0,0.0,99,0.00,CLR,,0.00,WeatherDisplay:10.37,2015-08-04 10:35:00,
2015-08-04 06:40:00,74.8,74.5,31.50,SE,135,0.0,0.0,99,0.00,CLR,,0.00,WeatherDisplay:10.37,2015-08-04 10:40:00,
2015-08-04 06:45:00,74.7,74.4,31.50,SE,135,0.0,0.0,99,0.00,CLR,,0.00,WeatherDisplay:10.37,2015-08-04 10:45:00,
2015-08-04 06:50:00,74.6,74.3,31.50,SE,135,0.0,0.0,99,0.00,CLR,,0.00,WeatherDisplay:10.37,2015-08-04 10:50:00,
2015-08-04 06:55:00,74.5,74.2,31.49,SE,135,0.0,0.0,99,0.00,CLR,,0.00,WeatherDisplay:10.37,2015-08-04 10:55:00,
2015-08-04 07:00:00,74.4,74.1,31.49,SE,135,0.0,0.0,99,0.00,CLR,,0.00,WeatherDisplay:10.37,2015-08-04 11:00:00,
2015-08-04 07:05:00,74.3,74.0,31.49,SE,135,0.0,0.0,99,0.00,CLR,,0.00,WeatherDisplay:10.37,2015-08-04 11:05:00,
2015-08-04 07:10:00,74.1,73.8,31.49,SE,135,0.0,0.0,99,0.00,CLR,,0.00,WeatherDisplay:10.37,2015-08-04 11:10:00,
2015-08-04 07:15:00,74.2,73.9,31.48,SE,135,0.0,0.0,99,0.00,CLR,,0.00,WeatherDisplay:10.37,2015-08-04 11:15:00,
2015-08-04 07:20:00,74.0,73.7,31.17,SE,135,0.0,0.0,99,0.00,CLR,,0.00,WeatherDisplay:10.37,2015-08-04 11:20:00,
2015-08-04 07:25:00,74.2,73.9,31.16,SE,135,2.0,0.0,99,0.00,CLR,,0.00,WeatherDisplay:10.37,2015-08-04 11:25:00,
2015-08-04 07:30:00,74.6,74.3,31.13,SE,135,1.2,0.0,99,0.00,CLR,,0.00,WeatherDisplay:10.37,2015-08-04 11:30:00,
2015-08-04 07:35:00,74.9,74.6,31.17,SE,135,1.0,0.0,99,0.00,CLR,,0.00,WeatherDisplay:10.37,2015-08-04 11:35:00,
2015-08-04 07:40:00,74.9,74.6,31.17,SE,135,0.0,0.0,99,0.00,CLR,,0.00,WeatherDisplay:10.37,2015-08-04 11:40:00,
2015-08-04 07:45:00,75.2,74.9,31.20,SE,135,2.3,2.3,99,0.00,CLR,,0.00,WeatherDisplay:10.37,2015-08-04 11:45:00,
2015-08-04 07:50:00,75.5,75.2,31.20,SE,135,2.3,2.3,99,0.00,CLR,,0.00,WeatherDisplay:10.37,2015-08-04 11:50:00,
2015-08-04 07:55:00,75.6,75.3,31.22,SE,135,0.0,0.0,99,0.00,CLR,,0.00,WeatherDisplay:10.37,2015-08-04 11:55:00,
2015-08-04 08:00:00,75.8,75.5,31.25,SE,135,0.0,0.0,99,0.00,CLR,,0.00,WeatherDisplay:10.37,2015-08-04 12:00:00,
2015-08-04 08:05:00,75.9,75.6,31.41,SE,135,0.0,0.0,99,0.00,CLR,,0.00,WeatherDisplay:10.37,2015-08-04 12:05:00,
2015-08-04 08:15:00,76.9,76.6,32.00,SE,135,2.3,2.3,99,0.00,CLR,,0.00,WeatherDisplay:10.37,2015-08-04 12:15:00,
2015-08-04 08:20:00,77.4,74.2,31.57,SE,135,2.3,2.3,90,0.00,CLR,,0.00,WeatherDisplay:10.37,2015-08-04 12:20:00,
2015-08-04 08:25:00,77.8,74.3,31.16,SE,135,1.2,1.2,89,0.00,CLR,,0.00,WeatherDisplay:10.37,2015-08-04 12:25:00,
2015-08-04 08:30:00,78.1,74.6,30.95,SE,135,2.3,2.3,89,0.00,CLR,,0.00,WeatherDisplay:10.37,2015-08-04 12:30:00,
2015-08-04 08:35:00,78.3,74.5,30.71,SE,135,0.0,0.0,88,0.00,CLR,,0.00,WeatherDisplay:10.37,2015-08-04 12:35:00,
2015-08-04 08:40:00,78.5,74.0,30.48,SE,135,2.3,2.3,86,0.00,CLR,,0.00,WeatherDisplay:10.37,2015-08-04 12:40:00,
2015-08-04 08:45:00,78.9,73.7,30.48,SE,135,2.3,2.3,84,0.00,CLR,,0.00,WeatherDisplay:10.37,2015-08-04 12:45:00,
2015-08-04 08:50:00,79.4,73.8,30.06,SE,135,2.3,2.3,83,0.00,CLR,,0.00,WeatherDisplay:10.37,2015-08-04 12:50:00,
2015-08-04 08:55:00,79.9,73.5,30.07,SE,135,1.0,1.0,81,0.00,CLR,,0.00,WeatherDisplay:10.37,2015-08-04 12:55:00,
2015-08-04 09:00:00,80.4,72.9,30.08,SE,135,3.5,3.5,78,0.00,CLR,,0.00,WeatherDisplay:10.37,2015-08-04 13:00:00,
2015-08-04 09:05:00,81.0,73.5,30.08,SE,135,2.3,2.3,78,0.00,CLR,,0.00,WeatherDisplay:10.37,2015-08-04 13:05:00,
2015-08-04 09:10:00,81.3,73.0,30.08,SE,135,2.3,2.3,76,0.00,CLR,,0.00,WeatherDisplay:10.37,2015-08-04 13:10:00,
2015-08-04 09:15:00,81.5,72.0,30.09,SSE,157,3.5,3.5,73,0.00,CLR,,0.00,WeatherDisplay:10.37,2015-08-04 13:15:00,
2015-08-04 09:20:00,81.7,72.2,30.09,SE,135,2.3,2.3,73,0.00,CLR,,0.00,WeatherDisplay:10.37,2015-08-04 13:20:00,
2015-08-04 09:25:00,81.8,72.3,30.10,SSE,157,3.5,3.5,73,0.00,CLR,,0.00,WeatherDisplay:10.37,2015-08-04 13:25:00,
2015-08-04 09:30:00,81.8,72.3,30.10,SE,135,3.5,3.5,73,0.00,CLR,,0.00,WeatherDisplay:10.37,2015-08-04 13:30:00,
2015-08-04 09:35:00,81.9,72.4,30.10,SE,135,2.3,2.3,73,0.00,CLR,,0.00,WeatherDisplay:10.37,2015-08-04 13:35:00,
2015-08-04 09:40:00,82.4,72.9,30.10,SW,225,3.5,3.5,73,0.00,CLR,,0.00,WeatherDisplay:10.37,2015-08-04 13:40:00,
2015-08-04 09:45:00,82.3,72.8,30.10,WSW,247,2.3,2.3,73,0.00,CLR,,0.00,WeatherDisplay:10.37,2015-08-04 13:45:00,
2015-08-04 09:50:00,82.6,73.1,30.10,SW,225,3.0,3.0,73,0.00,CLR,,0.00,WeatherDisplay:10.37,2015-08-04 13:50:00,
2015-08-04 09:55:00,83.1,73.1,30.10,SSE,157,2.3,2.3,72,0.00,CLR,,0.00,WeatherDisplay:10.37,2015-08-04 13:55:00,
2015-08-04 10:00:00,83.4,72.6,30.11,South,180,1.2,1.2,70,0.00,CLR,,0.00,WeatherDisplay:10.37,2015-08-04 14:00:00,
2015-08-04 10:05:00,83.9,73.9,30.11,SSW,202,1.2,1.2,72,0.00,CLR,,0.00,WeatherDisplay:10.37,2015-08-04 14:05:00,
2015-08-04 10:10:00,83.8,72.1,30.11,SE,135,4.6,4.6,68,0.00,CLR,,0.00,WeatherDisplay:10.37,2015-08-04 14:10:00,
2015-08-04 10:15:00,83.6,71.9,30.11,SSE,157,3.5,3.5,68,0.00,CLR,,0.00,WeatherDisplay:10.37,2015-08-04 14:15:00,
2015-08-04 10:20:00,84.3,72.6,30.11,SE,135,2.3,2.3,68,0.00,CLR,,0.00,WeatherDisplay:10.37,2015-08-04 14:20:00,
2015-08-04 10:25:00,84.4,72.7,30.11,WSW,247,3.5,3.5,68,0.00,CLR,,0.00,WeatherDisplay:10.37,2015-08-04 14:25:00,
2015-08-04 10:30:00,84.6,73.3,30.11,WSW,247,3.5,3.5,69,0.00,CLR,,0.00,WeatherDisplay:10.37,2015-08-04 14:30:00,
2015-08-04 10:35:00,84.7,73.0,30.12,SW,225,4.0,4.0,68,0.00,CLR,,0.00,WeatherDisplay:10.37,2015-08-04 14:35:00,
2015-08-04 10:40:00,84.9,72.3,30.12,South,180,5.8,5.8,66,0.00,CLR,,0.00,WeatherDisplay:10.37,2015-08-04 14:40:00,
2015-08-04 10:45:00,84.8,71.7,30.12,SE,135,2.3,2.3,65,0.00,CLR,,0.00,WeatherDisplay:10.37,2015-08-04 14:45:00,
2015-08-04 10:50:00,85.4,73.2,30.12,South,180,2.3,2.3,67,0.00,CLR,,0.00,WeatherDisplay:10.37,2015-08-04 14:50:00,
2015-08-04 10:55:00,85.3,72.6,30.12,SW,225,3.5,3.5,66,0.00,CLR,,0.00,WeatherDisplay:10.37,2015-08-04 14:55:00,
2015-08-04 11:00:00,85.5,73.3,30.13,SSW,202,2.3,2.3,67,0.00,CLR,,0.00,WeatherDisplay:10.37,2015-08-04 15:00:00,
2015-08-04 11:05:00,85.9,73.7,30.13,SW,225,2.3,2.3,67,0.00,CLR,,0.00,WeatherDisplay:10.37,2015-08-04 15:05:00,
2015-08-04 11:10:00,85.6,73.8,30.13,SW,225,3.5,3.5,68,0.00,CLR,,0.00,WeatherDisplay:10.37,2015-08-04 15:10:00,
2015-08-04 11:15:00,86.2,74.0,30.13,SSE,157,2.3,2.3,67,0.00,CLR,,0.00,WeatherDisplay:10.37,2015-08-04 15:15:00,
2015-08-04 11:20:00,86.1,73.9,30.13,SW,225,3.5,3.5,67,0.00,CLR,,0.00,WeatherDisplay:10.37,2015-08-04 15:20:00,
2015-08-04 11:25:00,85.9,72.8,30.13,West,270,3.5,3.5,65,0.00,CLR,,0.00,WeatherDisplay:10.37,2015-08-04 15:25:00,
2015-08-04 11:30:00,86.2,71.6,30.13,SW,225,3.5,3.5,62,0.00,CLR,,0.00,WeatherDisplay:10.37,2015-08-04 15:30:00,
2015-08-04 11:35:00,86.8,69.2,30.13,SW,225,3.5,3.5,56,0.00,CLR,,0.00,WeatherDisplay:10.37,2015-08-04 15:35:00,
2015-08-04 11:40:00,86.9,68.3,30.13,SW,225,2.3,2.3,54,0.00,CLR,,0.00,WeatherDisplay:10.37,2015-08-04 15:40:00,
2015-08-04 11:45:00,86.4,63.8,30.13,WNW,292,3.5,3.5,47,0.00,CLR,,0.00,WeatherDisplay:10.37,2015-08-04 15:45:00,
2015-08-04 11:50:00,86.8,64.8,30.13,SSW,202,3.5,3.5,48,0.00,CLR,,0.00,WeatherDisplay:10.37,2015-08-04 15:50:00,
2015-08-04 11:55:00,86.9,66.6,30.14,SW,225,2.3,2.3,51,0.00,CLR,,0.00,WeatherDisplay:10.37,2015-08-04 15:55:00,
2015-08-04 12:00:00,87.2,65.7,30.14,SW,225,3.5,3.5,49,0.00,CLR,,0.00,WeatherDisplay:10.37,2015-08-04 16:00:00,
2015-08-04 12:05:00,87.1,67.9,30.13,West,270,3.5,3.5,53,0.00,CLR,,0.00,WeatherDisplay:10.37,2015-08-04 16:05:00,
2015-08-04 12:10:00,87.1,69.0,30.14,SW,225,3.5,3.5,55,0.00,CLR,,0.00,WeatherDisplay:10.37,2015-08-04 16:10:00,
2015-08-04 12:15:00,87.3,68.6,30.13,South,180,3.5,3.5,54,0.00,CLR,,0.00,WeatherDisplay:10.37,2015-08-04 16:15:00,
2015-08-04 12:20:00,87.2,68.0,30.13,WSW,247,3.5,3.5,53,0.00,CLR,,0.00,WeatherDisplay:10.37,2015-08-04 16:20:00,
2015-08-04 12:25:00,87.3,66.4,30.14,SW,225,4.6,4.6,50,0.00,CLR,,0.00,WeatherDisplay:10.37,2015-08-04 16:25:00,
2015-08-04 12:30:00,87.7,66.8,30.13,SSW,202,4.6,4.6,50,0.00,CLR,,0.00,WeatherDisplay:10.37,2015-08-04 16:30:00,
2015-08-04 12:35:00,87.9,64.5,30.13,SW,225,5.0,5.0,46,0.00,CLR,,0.00,WeatherDisplay:10.37,2015-08-04 16:35:00,
2015-08-04 12:40:00,87.7,65.6,30.13,SW,225,3.5,3.5,48,0.00,CLR,,0.00,WeatherDisplay:10.37,2015-08-04 16:40:00,
2015-08-04 12:45:00,87.8,65.1,30.13,West,270,3.5,3.5,47,0.00,CLR,,0.00,WeatherDisplay:10.37,2015-08-04 16:45:00,
2015-08-04 12:50:00,88.1,64.7,30.13,SSW,202,3.5,3.5,46,0.00,CLR,,0.00,WeatherDisplay:10.37,2015-08-04 16:50:00,
2015-08-04 12:55:00,88.1,64.1,30.13,SW,225,2.3,2.3,45,0.00,CLR,,0.00,WeatherDisplay:10.37,2015-08-04 16:55:00,
2015-08-04 13:00:00,88.3,63.0,30.13,SW,225,2.3,2.3,43,0.00,CLR,,0.00,WeatherDisplay:10.37,2015-08-04 17:00:00,
2015-08-04 13:05:00,88.2,64.8,30.13,SW,225,3.5,3.5,46,0.00,CLR,,0.00,WeatherDisplay:10.37,2015-08-04 17:05:00,
2015-08-04 13:10:00,88.4,64.4,30.13,WSW,247,3.5,3.5,45,0.00,CLR,,0.00,WeatherDisplay:10.37,2015-08-04 17:10:00,
2015-08-04 13:15:00,87.9,65.2,30.13,WSW,247,3.5,3.5,47,0.00,CLR,,0.00,WeatherDisplay:10.37,2015-08-04 17:15:00,
2015-08-04 13:20:00,88.3,64.9,30.13,SW,225,5.0,5.0,46,0.00,CLR,,0.00,WeatherDisplay:10.37,2015-08-04 17:20:00,
2015-08-04 13:25:00,88.4,64.4,30.12,SW,225,4.0,4.0,45,0.00,CLR,,0.00,WeatherDisplay:10.37,2015-08-04 17:25:00,
2015-08-04 13:30:00,88.0,65.2,30.12,SW,225,5.8,5.8,47,0.00,CLR,,0.00,WeatherDisplay:10.37,2015-08-04 17:30:00,
2015-08-04 13:35:00,88.0,66.4,30.12,West,270,6.9,6.9,49,0.00,CLR,,0.00,WeatherDisplay:10.37,2015-08-04 17:35:00,
2015-08-04 13:40:00,87.9,65.8,30.12,SW,225,4.6,4.6,48,0.00,CLR,,0.00,WeatherDisplay:10.37,2015-08-04 17:40:00,
2015-08-04 13:45:00,87.9,66.4,30.12,SW,225,4.6,4.6,49,0.00,CLR,,0.00,WeatherDisplay:10.37,2015-08-04 17:45:00,
2015-08-04 13:50:00,87.8,66.8,30.12,SW,225,3.5,3.5,50,0.00,CLR,,0.00,WeatherDisplay:10.37,2015-08-04 17:50:00,
2015-08-04 13:55:00,87.8,67.4,30.11,WSW,247,3.5,3.5,51,0.00,CLR,,0.00,WeatherDisplay:10.37,2015-08-04 17:55:00,
2015-08-04 14:00:00,87.8,66.3,30.11,SW,225,4.6,4.6,49,0.00,CLR,,0.01,WeatherDisplay:10.37,2015-08-04 18:00:00,
2015-08-04 14:05:00,87.6,66.7,30.11,SW,225,5.8,5.8,50,0.01,RA,,0.01,WeatherDisplay:10.37,2015-08-04 18:05:00,
2015-08-04 14:10:00,87.9,67.5,30.11,SW,225,2.3,2.3,51,0.01,RA,,0.01,WeatherDisplay:10.37,2015-08-04 18:10:00,
2015-08-04 14:15:00,88.2,69.5,30.11,SW,225,3.5,3.5,54,0.01,CLR,,0.01,WeatherDisplay:10.37,2015-08-04 18:15:00,
2015-08-04 14:20:00,87.9,66.9,30.11,WSW,247,3.5,3.5,50,0.01,CLR,,0.01,WeatherDisplay:10.37,2015-08-04 18:20:00,
2015-08-04 14:25:00,88.5,69.2,30.11,SW,225,5.8,5.8,53,0.01,CLR,,0.01,WeatherDisplay:10.37,2015-08-04 18:25:00,
2015-08-04 14:30:00,88.6,68.2,30.11,WSW,247,3.5,3.5,51,0.01,CLR,,0.01,WeatherDisplay:10.37,2015-08-04 18:30:00,
2015-08-04 14:35:00,88.6,69.3,30.11,SW,225,5.8,5.8,53,0.01,CLR,,0.01,WeatherDisplay:10.37,2015-08-04 18:35:00,
2015-08-04 14:40:00,88.8,67.2,30.11,SW,225,4.6,4.6,49,0.01,CLR,,0.01,WeatherDisplay:10.37,2015-08-04 18:40:00,
2015-08-04 14:45:00,88.9,68.4,30.11,SW,225,5.8,5.8,51,0.01,CLR,,0.01,WeatherDisplay:10.37,2015-08-04 18:45:00,
2015-08-04 14:50:00,88.7,68.2,30.11,SW,225,5.8,5.8,51,0.01,CLR,,0.01,WeatherDisplay:10.37,2015-08-04 18:50:00,
2015-08-04 14:55:00,88.9,69.6,30.11,SW,225,5.0,5.0,53,0.01,CLR,,0.01,WeatherDisplay:10.37,2015-08-04 18:55:00,
2015-08-04 15:00:00,88.7,68.2,30.10,WSW,247,6.0,6.0,51,0.01,CLR,,0.01,WeatherDisplay:10.37,2015-08-04 19:00:00,
2015-08-04 15:05:00,88.6,69.3,30.10,SSW,202,5.0,5.0,53,0.00,CLR,,0.01,WeatherDisplay:10.37,2015-08-04 19:05:00,
2015-08-04 15:10:00,88.7,69.9,30.09,SW,225,5.8,5.8,54,0.00,CLR,,0.01,WeatherDisplay:10.37,2015-08-04 19:10:00,
2015-08-04 15:15:00,88.1,69.4,30.09,South,180,4.0,4.0,54,0.00,CLR,,0.01,WeatherDisplay:10.37,2015-08-04 19:15:00,
2015-08-04 15:20:00,87.9,69.7,30.09,SW,225,6.9,6.9,55,0.00,CLR,,0.01,WeatherDisplay:10.37,2015-08-04 19:20:00,
2015-08-04 15:25:00,88.3,70.6,30.08,SW,225,4.6,4.6,56,0.00,CLR,,0.01,WeatherDisplay:10.37,2015-08-04 19:25:00,
2015-08-04 15:30:00,88.2,70.0,30.08,SW,225,5.8,5.8,55,0.00,CLR,,0.01,WeatherDisplay:10.37,2015-08-04 19:30:00,
2015-08-04 15:35:00,88.3,70.6,30.08,WSW,247,5.8,5.8,56,0.00,CLR,,0.01,WeatherDisplay:10.37,2015-08-04 19:35:00,